sensor_id;sensor_type;location;lat;lon;timestamp;pressure;altitude;pressure_sealevel;temperature;humidity
62458;BME280;48509;52.122;5.250;2023-03-30T00:00:11;100488.0;;;14.92;85.3
62458;BME280;48509;52.122;5.250;2023-03-30T00:03:25;100485.0;;;14.94;85.58
62458;BME280;48509;52.122;5.250;2023-03-30T00:05:01;100481.0;;;15.03;85.04
62458;BME280;48509;52.122;5.250;2023-03-30T00:06:37;100478.0;;;14.92;85.56
62458;BME280;48509;52.122;5.250;2023-03-30T00:09:50;100473.0;;;14.97;83.93
62458;BME280;48509;52.122;5.250;2023-03-30T00:11:26;100468.0;;;14.94;83.66
62458;BME280;48509;52.122;5.250;2023-03-30T00:13:03;100467.0;;;15.03;84.02
62458;BME280;48509;52.122;5.250;2023-03-30T00:14:40;100460.0;;;15.04;84.19
62458;BME280;48509;52.122;5.250;2023-03-30T00:17:53;100470.0;;;15.03;83.38
62458;BME280;48509;52.122;5.250;2023-03-30T00:19:29;100465.0;;;15.13;82.6
62458;BME280;48509;52.122;5.250;2023-03-30T00:21:07;100468.0;;;15.09;83.0
62458;BME280;48509;52.122;5.250;2023-03-30T00:24:21;100464.0;;;15.08;82.27
62458;BME280;48509;52.122;5.250;2023-03-30T00:25:58;100470.0;;;15.01;83.38
62458;BME280;48509;52.122;5.250;2023-03-30T00:27:36;100463.0;;;15.09;83.21
62458;BME280;48509;52.122;5.250;2023-03-30T00:30:48;100458.0;;;15.06;83.0
62458;BME280;48509;52.122;5.250;2023-03-30T00:32:24;100452.0;;;15.05;83.71
62458;BME280;48509;52.122;5.250;2023-03-30T00:34:00;100456.0;;;15.0;83.98
62458;BME280;48509;52.122;5.250;2023-03-30T00:35:36;100462.0;;;14.97;83.23
62458;BME280;48509;52.122;5.250;2023-03-30T00:38:49;100464.0;;;15.01;83.52
62458;BME280;48509;52.122;5.250;2023-03-30T00:40:25;100460.0;;;15.03;83.94
62458;BME280;48509;52.122;5.250;2023-03-30T00:42:01;100463.0;;;14.93;84.14
62458;BME280;48509;52.122;5.250;2023-03-30T00:45:31;100474.0;;;14.9;83.5
62458;BME280;48509;52.122;5.250;2023-03-30T00:47:07;100468.0;;;14.98;84.13
62458;BME280;48509;52.122;5.250;2023-03-30T00:48:44;100456.0;;;14.85;85.94
62458;BME280;48509;52.122;5.250;2023-03-30T00:50:23;100459.0;;;14.68;86.33
62458;BME280;48509;52.122;5.250;2023-03-30T00:53:39;100469.0;;;14.64;85.87
62458;BME280;48509;52.122;5.250;2023-03-30T00:55:19;100472.0;;;14.77;85.84
62458;BME280;48509;52.122;5.250;2023-03-30T00:56:57;100468.0;;;14.65;85.75
62458;BME280;48509;52.122;5.250;2023-03-30T00:58:34;100458.0;;;14.65;84.88
62458;BME280;48509;52.122;5.250;2023-03-30T01:01:50;100449.0;;;14.8;84.6
62458;BME280;48509;52.122;5.250;2023-03-30T01:03:29;100442.0;;;14.65;85.64
62458;BME280;48509;52.122;5.250;2023-03-30T01:05:08;100431.0;;;14.6;85.42
62458;BME280;48509;52.122;5.250;2023-03-30T01:08:24;100418.0;;;14.6;84.05
62458;BME280;48509;52.122;5.250;2023-03-30T01:10:01;100426.0;;;14.41;83.91
62458;BME280;48509;52.122;5.250;2023-03-30T01:11:38;100423.0;;;14.41;84.29
62458;BME280;48509;52.122;5.250;2023-03-30T01:13:16;100428.0;;;14.48;82.44
62458;BME280;48509;52.122;5.250;2023-03-30T01:16:35;100418.0;;;14.58;81.52
62458;BME280;48509;52.122;5.250;2023-03-30T01:18:23;100421.0;;;14.61;81.33
62458;BME280;48509;52.122;5.250;2023-03-30T01:20:55;100420.0;;;14.77;80.64
62458;BME280;48509;52.122;5.250;2023-03-30T01:24:19;100421.0;;;14.69;79.91
62458;BME280;48509;52.122;5.250;2023-03-30T01:28:29;100416.0;;;14.91;78.38
62458;BME280;48509;52.122;5.250;2023-03-30T01:30:30;100420.0;;;15.01;77.94
62458;BME280;48509;52.122;5.250;2023-03-30T01:33:38;100417.0;;;15.09;76.97
62458;BME280;48509;52.122;5.250;2023-03-30T01:36:24;100419.0;;;14.93;77.23
62458;BME280;48509;52.122;5.250;2023-03-30T01:39:20;100425.0;;;14.91;76.47
62458;BME280;48509;52.122;5.250;2023-03-30T01:41:33;100430.0;;;14.95;76.94
62458;BME280;48509;52.122;5.250;2023-03-30T01:43:15;100433.0;;;14.98;76.27
62458;BME280;48509;52.122;5.250;2023-03-30T01:44:59;100423.0;;;15.03;75.91
62458;BME280;48509;52.122;5.250;2023-03-30T01:48:26;100414.0;;;15.06;75.94
62458;BME280;48509;52.122;5.250;2023-03-30T01:50:08;100406.0;;;15.09;76.91
62458;BME280;48509;52.122;5.250;2023-03-30T01:51:52;100395.0;;;15.06;76.99
62458;BME280;48509;52.122;5.250;2023-03-30T01:53:45;100384.0;;;15.03;76.77
62458;BME280;48509;52.122;5.250;2023-03-30T01:55:31;100380.0;;;15.13;76.86
62458;BME280;48509;52.122;5.250;2023-03-30T01:57:13;100377.0;;;15.07;76.78
62458;BME280;48509;52.122;5.250;2023-03-30T02:00:34;100382.0;;;15.06;76.72
62458;BME280;48509;52.122;5.250;2023-03-30T02:02:12;100384.0;;;15.03;77.05
62458;BME280;48509;52.122;5.250;2023-03-30T02:03:53;100371.0;;;14.92;77.55
62458;BME280;48509;52.122;5.250;2023-03-30T02:05:32;100380.0;;;14.85;78.44
62458;BME280;48509;52.122;5.250;2023-03-30T02:08:51;100388.0;;;14.79;77.91
62458;BME280;48509;52.122;5.250;2023-03-30T02:10:32;100386.0;;;14.78;77.94
62458;BME280;48509;52.122;5.250;2023-03-30T02:12:11;100388.0;;;14.91;77.7
62458;BME280;48509;52.122;5.250;2023-03-30T02:15:32;100380.0;;;15.03;77.02
62458;BME280;48509;52.122;5.250;2023-03-30T02:17:16;100365.0;;;14.89;78.08
62458;BME280;48509;52.122;5.250;2023-03-30T02:18:54;100361.0;;;14.77;78.77
62458;BME280;48509;52.122;5.250;2023-03-30T02:20:31;100373.0;;;14.65;79.92
62458;BME280;48509;52.122;5.250;2023-03-30T02:23:44;100378.0;;;14.67;78.64
62458;BME280;48509;52.122;5.250;2023-03-30T02:25:21;100384.0;;;14.67;79.22
62458;BME280;48509;52.122;5.250;2023-03-30T02:26:58;100393.0;;;14.55;79.0
62458;BME280;48509;52.122;5.250;2023-03-30T02:28:35;100397.0;;;14.54;78.45
62458;BME280;48509;52.122;5.250;2023-03-30T02:31:52;100399.0;;;14.57;78.66
62458;BME280;48509;52.122;5.250;2023-03-30T02:33:37;100395.0;;;14.54;79.37
62458;BME280;48509;52.122;5.250;2023-03-30T02:35:28;100393.0;;;14.58;79.03
62458;BME280;48509;52.122;5.250;2023-03-30T02:37:30;100403.0;;;14.72;78.86
62458;BME280;48509;52.122;5.250;2023-03-30T02:40:25;100400.0;;;14.63;79.3
62458;BME280;48509;52.122;5.250;2023-03-30T02:42:27;100406.0;;;14.67;79.42
62458;BME280;48509;52.122;5.250;2023-03-30T02:44:19;100405.0;;;14.72;79.66
62458;BME280;48509;52.122;5.250;2023-03-30T02:46:10;100403.0;;;14.78;79.45
62458;BME280;48509;52.122;5.250;2023-03-30T02:48:02;100402.0;;;14.82;78.22
62458;BME280;48509;52.122;5.250;2023-03-30T02:49:52;100396.0;;;14.91;78.08
62458;BME280;48509;52.122;5.250;2023-03-30T02:51:38;100395.0;;;15.0;77.8
62458;BME280;48509;52.122;5.250;2023-03-30T02:55:12;100395.0;;;15.11;76.62
62458;BME280;48509;52.122;5.250;2023-03-30T02:56:56;100400.0;;;15.1;76.97
62458;BME280;48509;52.122;5.250;2023-03-30T02:58:40;100399.0;;;15.1;76.69
62458;BME280;48509;52.122;5.250;2023-03-30T03:00:22;100402.0;;;15.13;76.86
62458;BME280;48509;52.122;5.250;2023-03-30T03:02:04;100396.0;;;15.1;77.84
62458;BME280;48509;52.122;5.250;2023-03-30T03:05:28;100393.0;;;15.09;77.74
62458;BME280;48509;52.122;5.250;2023-03-30T03:07:04;100381.0;;;15.08;78.33
62458;BME280;48509;52.122;5.250;2023-03-30T03:08:42;100377.0;;;15.15;78.3
62458;BME280;48509;52.122;5.250;2023-03-30T03:11:56;100376.0;;;15.16;78.52
62458;BME280;48509;52.122;5.250;2023-03-30T03:13:32;100380.0;;;15.19;78.69
62458;BME280;48509;52.122;5.250;2023-03-30T03:15:09;100371.0;;;15.19;78.44
62458;BME280;48509;52.122;5.250;2023-03-30T03:16:46;100363.0;;;15.26;78.77
62458;BME280;48509;52.122;5.250;2023-03-30T03:19:59;100355.0;;;15.13;79.3
62458;BME280;48509;52.122;5.250;2023-03-30T03:21:35;100358.0;;;15.21;79.75
62458;BME280;48509;52.122;5.250;2023-03-30T03:23:11;100359.0;;;15.23;80.14
62458;BME280;48509;52.122;5.250;2023-03-30T03:26:24;100358.0;;;15.18;80.61
62458;BME280;48509;52.122;5.250;2023-03-30T03:28:00;100356.0;;;15.19;80.62
62458;BME280;48509;52.122;5.250;2023-03-30T03:29:36;100365.0;;;15.22;80.94
62458;BME280;48509;52.122;5.250;2023-03-30T03:32:49;100364.0;;;15.07;81.97
62458;BME280;48509;52.122;5.250;2023-03-30T03:34:25;100362.0;;;15.16;82.11
62458;BME280;48509;52.122;5.250;2023-03-30T03:36:02;100358.0;;;15.07;83.15
62458;BME280;48509;52.122;5.250;2023-03-30T03:37:38;100350.0;;;15.08;83.44
62458;BME280;48509;52.122;5.250;2023-03-30T03:40:51;100343.0;;;15.08;83.72
62458;BME280;48509;52.122;5.250;2023-03-30T03:42:29;100341.0;;;15.17;83.63
62458;BME280;48509;52.122;5.250;2023-03-30T03:44:05;100340.0;;;15.35;82.94
62458;BME280;48509;52.122;5.250;2023-03-30T03:47:17;100339.0;;;15.43;82.83
62458;BME280;48509;52.122;5.250;2023-03-30T03:48:53;100344.0;;;15.3;83.31
62458;BME280;48509;52.122;5.250;2023-03-30T03:50:29;100337.0;;;15.34;83.65
62458;BME280;48509;52.122;5.250;2023-03-30T03:53:41;100343.0;;;15.31;84.19
62458;BME280;48509;52.122;5.250;2023-03-30T03:55:18;100332.0;;;15.23;84.28
62458;BME280;48509;52.122;5.250;2023-03-30T03:56:54;100335.0;;;15.22;84.76
62458;BME280;48509;52.122;5.250;2023-03-30T03:58:30;100330.0;;;15.28;84.55
62458;BME280;48509;52.122;5.250;2023-03-30T04:01:44;100334.0;;;15.18;84.71
62458;BME280;48509;52.122;5.250;2023-03-30T04:03:20;100338.0;;;15.22;85.08
62458;BME280;48509;52.122;5.250;2023-03-30T04:04:56;100330.0;;;15.15;85.49
62458;BME280;48509;52.122;5.250;2023-03-30T04:08:09;100333.0;;;15.02;86.16
62458;BME280;48509;52.122;5.250;2023-03-30T04:09:46;100335.0;;;15.07;86.13
62458;BME280;48509;52.122;5.250;2023-03-30T04:11:22;100334.0;;;15.0;86.41
62458;BME280;48509;52.122;5.250;2023-03-30T04:14:34;100330.0;;;14.9;86.76
62458;BME280;48509;52.122;5.250;2023-03-30T04:16:10;100341.0;;;15.0;86.94
62458;BME280;48509;52.122;5.250;2023-03-30T04:17:46;100327.0;;;14.89;86.87
62458;BME280;48509;52.122;5.250;2023-03-30T04:19:22;100335.0;;;14.96;86.61
62458;BME280;48509;52.122;5.250;2023-03-30T04:22:37;100341.0;;;14.87;87.07
62458;BME280;48509;52.122;5.250;2023-03-30T04:24:14;100336.0;;;14.87;87.41
62458;BME280;48509;52.122;5.250;2023-03-30T04:25:50;100335.0;;;14.94;86.92
62458;BME280;48509;52.122;5.250;2023-03-30T04:29:02;100331.0;;;14.9;86.97
62458;BME280;48509;52.122;5.250;2023-03-30T04:30:38;100332.0;;;14.89;87.18
62458;BME280;48509;52.122;5.250;2023-03-30T04:32:14;100335.0;;;14.95;87.08
62458;BME280;48509;52.122;5.250;2023-03-30T04:35:28;100334.0;;;14.95;87.37
62458;BME280;48509;52.122;5.250;2023-03-30T04:37:05;100342.0;;;15.01;86.93
62458;BME280;48509;52.122;5.250;2023-03-30T04:38:41;100338.0;;;14.93;87.19
62458;BME280;48509;52.122;5.250;2023-03-30T04:40:17;100333.0;;;14.78;89.43
62458;BME280;48509;52.122;5.250;2023-03-30T04:43:29;100332.0;;;14.78;90.66
62458;BME280;48509;52.122;5.250;2023-03-30T04:45:07;100332.0;;;14.8;90.79
62458;BME280;48509;52.122;5.250;2023-03-30T04:46:43;100319.0;;;14.62;91.17
62458;BME280;48509;52.122;5.250;2023-03-30T04:49:58;100316.0;;;14.61;91.68
62458;BME280;48509;52.122;5.250;2023-03-30T04:51:34;100323.0;;;14.54;92.67
62458;BME280;48509;52.122;5.250;2023-03-30T04:53:11;100326.0;;;14.46;92.55
62458;BME280;48509;52.122;5.250;2023-03-30T04:56:23;100318.0;;;14.53;92.27
62458;BME280;48509;52.122;5.250;2023-03-30T04:57:59;100319.0;;;14.51;92.81
62458;BME280;48509;52.122;5.250;2023-03-30T04:59:36;100322.0;;;14.51;92.73
62458;BME280;48509;52.122;5.250;2023-03-30T05:02:49;100339.0;;;14.49;93.72
62458;BME280;48509;52.122;5.250;2023-03-30T05:04:25;100334.0;;;14.55;94.4
62458;BME280;48509;52.122;5.250;2023-03-30T05:06:01;100330.0;;;14.46;94.93
62458;BME280;48509;52.122;5.250;2023-03-30T05:07:37;100318.0;;;14.45;95.44
62458;BME280;48509;52.122;5.250;2023-03-30T05:10:49;100320.0;;;14.44;96.04
62458;BME280;48509;52.122;5.250;2023-03-30T05:12:25;100321.0;;;14.49;95.32
62458;BME280;48509;52.122;5.250;2023-03-30T05:14:02;100322.0;;;14.3;95.93
62458;BME280;48509;52.122;5.250;2023-03-30T05:17:14;100324.0;;;14.22;96.74
62458;BME280;48509;52.122;5.250;2023-03-30T05:18:50;100319.0;;;14.21;96.45
62458;BME280;48509;52.122;5.250;2023-03-30T05:20:26;100318.0;;;14.11;96.63
62458;BME280;48509;52.122;5.250;2023-03-30T05:23:38;100323.0;;;14.16;96.34
62458;BME280;48509;52.122;5.250;2023-03-30T05:25:15;100311.0;;;14.11;95.83
62458;BME280;48509;52.122;5.250;2023-03-30T05:26:52;100314.0;;;14.02;95.96
62458;BME280;48509;52.122;5.250;2023-03-30T05:28:28;100321.0;;;14.07;95.84
62458;BME280;48509;52.122;5.250;2023-03-30T05:31:42;100321.0;;;14.1;94.97
62458;BME280;48509;52.122;5.250;2023-03-30T05:33:18;100320.0;;;14.17;94.59
62458;BME280;48509;52.122;5.250;2023-03-30T05:34:54;100328.0;;;14.14;94.75
62458;BME280;48509;52.122;5.250;2023-03-30T05:38:06;100319.0;;;14.05;95.28
62458;BME280;48509;52.122;5.250;2023-03-30T05:39:43;100322.0;;;13.95;96.05
62458;BME280;48509;52.122;5.250;2023-03-30T05:41:19;100330.0;;;13.93;96.32
62458;BME280;48509;52.122;5.250;2023-03-30T05:44:31;100324.0;;;13.96;96.49
62458;BME280;48509;52.122;5.250;2023-03-30T05:46:07;100318.0;;;13.99;96.24
62458;BME280;48509;52.122;5.250;2023-03-30T05:47:43;100325.0;;;13.98;95.93
62458;BME280;48509;52.122;5.250;2023-03-30T05:49:19;100330.0;;;13.92;95.76
62458;BME280;48509;52.122;5.250;2023-03-30T05:52:32;100337.0;;;13.86;96.28
62458;BME280;48509;52.122;5.250;2023-03-30T05:54:10;100345.0;;;13.84;96.22
62458;BME280;48509;52.122;5.250;2023-03-30T05:55:46;100338.0;;;13.87;95.7
62458;BME280;48509;52.122;5.250;2023-03-30T05:59:00;100344.0;;;13.8;95.58
62458;BME280;48509;52.122;5.250;2023-03-30T06:00:36;100340.0;;;13.89;95.33
62458;BME280;48509;52.122;5.250;2023-03-30T06:02:12;100346.0;;;13.84;95.54
62458;BME280;48509;52.122;5.250;2023-03-30T06:05:25;100341.0;;;13.9;95.72
62458;BME280;48509;52.122;5.250;2023-03-30T06:07:01;100340.0;;;14.03;94.81
62458;BME280;48509;52.122;5.250;2023-03-30T06:08:37;100337.0;;;13.92;95.35
62458;BME280;48509;52.122;5.250;2023-03-30T06:11:50;100342.0;;;13.84;94.91
62458;BME280;48509;52.122;5.250;2023-03-30T06:13:26;100341.0;;;13.81;94.77
62458;BME280;48509;52.122;5.250;2023-03-30T06:15:03;100344.0;;;13.73;94.84
62458;BME280;48509;52.122;5.250;2023-03-30T06:16:38;100349.0;;;13.76;95.14
62458;BME280;48509;52.122;5.250;2023-03-30T06:19:51;100352.0;;;13.67;95.2
62458;BME280;48509;52.122;5.250;2023-03-30T06:21:27;100360.0;;;13.72;95.14
62458;BME280;48509;52.122;5.250;2023-03-30T06:23:04;100356.0;;;13.69;95.61
62458;BME280;48509;52.122;5.250;2023-03-30T06:26:16;100351.0;;;13.64;95.79
62458;BME280;48509;52.122;5.250;2023-03-30T06:27:52;100364.0;;;13.68;95.54
62458;BME280;48509;52.122;5.250;2023-03-30T06:29:29;100369.0;;;13.68;95.68
62458;BME280;48509;52.122;5.250;2023-03-30T06:32:45;100371.0;;;13.79;94.44
62458;BME280;48509;52.122;5.250;2023-03-30T06:34:21;100367.0;;;13.81;93.96
62458;BME280;48509;52.122;5.250;2023-03-30T06:35:57;100365.0;;;13.7;94.57
62458;BME280;48509;52.122;5.250;2023-03-30T06:37:33;100384.0;;;13.72;94.37
62458;BME280;48509;52.122;5.250;2023-03-30T06:40:47;100372.0;;;13.63;93.23
62458;BME280;48509;52.122;5.250;2023-03-30T06:42:25;100362.0;;;13.62;93.58
62458;BME280;48509;52.122;5.250;2023-03-30T06:44:01;100378.0;;;13.65;93.67
62458;BME280;48509;52.122;5.250;2023-03-30T06:47:14;100383.0;;;13.66;93.07
62458;BME280;48509;52.122;5.250;2023-03-30T06:48:50;100392.0;;;13.64;91.98
62458;BME280;48509;52.122;5.250;2023-03-30T06:50:26;100380.0;;;13.58;92.27
62458;BME280;48509;52.122;5.250;2023-03-30T06:53:39;100380.0;;;13.69;91.73
62458;BME280;48509;52.122;5.250;2023-03-30T06:55:15;100386.0;;;13.79;90.16
62458;BME280;48509;52.122;5.250;2023-03-30T06:56:51;100387.0;;;13.67;91.01
62458;BME280;48509;52.122;5.250;2023-03-30T06:58:29;100396.0;;;13.6;91.15
62458;BME280;48509;52.122;5.250;2023-03-30T07:01:43;100384.0;;;13.67;91.76
62458;BME280;48509;52.122;5.250;2023-03-30T07:03:20;100387.0;;;13.75;91.92
62458;BME280;48509;52.122;5.250;2023-03-30T07:04:55;100397.0;;;13.73;90.63
62458;BME280;48509;52.122;5.250;2023-03-30T07:08:08;100386.0;;;13.74;91.24
62458;BME280;48509;52.122;5.250;2023-03-30T07:09:44;100395.0;;;13.76;90.78
62458;BME280;48509;52.122;5.250;2023-03-30T07:11:20;100403.0;;;13.81;90.66
62458;BME280;48509;52.122;5.250;2023-03-30T07:14:32;100402.0;;;13.67;91.4
62458;BME280;48509;52.122;5.250;2023-03-30T07:16:08;100402.0;;;13.85;90.37
62458;BME280;48509;52.122;5.250;2023-03-30T07:17:44;100396.0;;;13.71;90.86
62458;BME280;48509;52.122;5.250;2023-03-30T07:19:20;100420.0;;;13.65;90.63
62458;BME280;48509;52.122;5.250;2023-03-30T07:22:33;100425.0;;;13.69;91.9
62458;BME280;48509;52.122;5.250;2023-03-30T07:24:10;100425.0;;;13.79;91.63
62458;BME280;48509;52.122;5.250;2023-03-30T07:25:46;100414.0;;;13.86;90.91
62458;BME280;48509;52.122;5.250;2023-03-30T07:28:59;100424.0;;;13.62;91.81
62458;BME280;48509;52.122;5.250;2023-03-30T07:30:35;100420.0;;;13.75;91.1
62458;BME280;48509;52.122;5.250;2023-03-30T07:32:11;100425.0;;;13.77;90.51
62458;BME280;48509;52.122;5.250;2023-03-30T07:35:24;100422.0;;;13.78;90.44
62458;BME280;48509;52.122;5.250;2023-03-30T07:37:00;100426.0;;;13.9;90.14
62458;BME280;48509;52.122;5.250;2023-03-30T07:38:36;100423.0;;;13.98;89.77
62458;BME280;48509;52.122;5.250;2023-03-30T07:40:12;100426.0;;;14.01;89.43
62458;BME280;48509;52.122;5.250;2023-03-30T07:43:25;100433.0;;;14.13;89.86
62458;BME280;48509;52.122;5.250;2023-03-30T07:45:01;100438.0;;;14.13;89.13
62458;BME280;48509;52.122;5.250;2023-03-30T07:46:37;100445.0;;;14.12;89.34
62458;BME280;48509;52.122;5.250;2023-03-30T07:49:49;100434.0;;;14.06;88.68
62458;BME280;48509;52.122;5.250;2023-03-30T07:51:25;100441.0;;;14.14;89.43
62458;BME280;48509;52.122;5.250;2023-03-30T07:53:01;100447.0;;;14.23;88.76
62458;BME280;48509;52.122;5.250;2023-03-30T07:56:15;100425.0;;;14.23;88.08
62458;BME280;48509;52.122;5.250;2023-03-30T07:57:51;100437.0;;;14.27;88.4
62458;BME280;48509;52.122;5.250;2023-03-30T07:59:27;100443.0;;;14.29;88.16
62458;BME280;48509;52.122;5.250;2023-03-30T08:02:39;100444.0;;;14.39;87.33
62458;BME280;48509;52.122;5.250;2023-03-30T08:04:15;100435.0;;;14.41;87.05
62458;BME280;48509;52.122;5.250;2023-03-30T08:05:53;100457.0;;;14.32;87.76
62458;BME280;48509;52.122;5.250;2023-03-30T08:07:29;100453.0;;;14.14;88.13
62458;BME280;48509;52.122;5.250;2023-03-30T08:10:44;100448.0;;;14.22;88.48
62458;BME280;48509;52.122;5.250;2023-03-30T08:12:20;100450.0;;;14.34;88.1
62458;BME280;48509;52.122;5.250;2023-03-30T08:13:56;100457.0;;;14.46;87.85
62458;BME280;48509;52.122;5.250;2023-03-30T08:17:08;100455.0;;;14.45;87.32
62458;BME280;48509;52.122;5.250;2023-03-30T08:18:44;100457.0;;;14.55;87.12
62458;BME280;48509;52.122;5.250;2023-03-30T08:20:20;100463.0;;;14.46;87.61
62458;BME280;48509;52.122;5.250;2023-03-30T08:23:33;100462.0;;;14.59;87.91
62458;BME280;48509;52.122;5.250;2023-03-30T08:25:10;100459.0;;;14.58;87.41
62458;BME280;48509;52.122;5.250;2023-03-30T08:26:46;100465.0;;;14.57;87.46
62458;BME280;48509;52.122;5.250;2023-03-30T08:28:22;100462.0;;;14.58;87.11
62458;BME280;48509;52.122;5.250;2023-03-30T08:31:35;100463.0;;;14.49;88.15
62458;BME280;48509;52.122;5.250;2023-03-30T08:33:14;100464.0;;;14.56;87.64
62458;BME280;48509;52.122;5.250;2023-03-30T08:34:51;100474.0;;;14.62;86.74
62458;BME280;48509;52.122;5.250;2023-03-30T08:38:04;100476.0;;;14.55;86.97
62458;BME280;48509;52.122;5.250;2023-03-30T08:39:42;100477.0;;;14.51;87.54
62458;BME280;48509;52.122;5.250;2023-03-30T08:41:38;100493.0;;;14.39;87.82
62458;BME280;48509;52.122;5.250;2023-03-30T08:44:56;100485.0;;;14.57;86.71
62458;BME280;48509;52.122;5.250;2023-03-30T08:46:35;100484.0;;;14.48;86.86
62458;BME280;48509;52.122;5.250;2023-03-30T08:48:16;100485.0;;;14.46;86.5
62458;BME280;48509;52.122;5.250;2023-03-30T08:49:59;100488.0;;;14.32;86.79
62458;BME280;48509;52.122;5.250;2023-03-30T08:51:43;100487.0;;;14.17;87.27
62458;BME280;48509;52.122;5.250;2023-03-30T08:55:00;100495.0;;;14.35;87.66
62458;BME280;48509;52.122;5.250;2023-03-30T08:56:54;100491.0;;;14.39;88.25
62458;BME280;48509;52.122;5.250;2023-03-30T08:58:39;100492.0;;;14.48;87.59
62458;BME280;48509;52.122;5.250;2023-03-30T09:00:27;100489.0;;;14.49;87.86
62458;BME280;48509;52.122;5.250;2023-03-30T09:02:15;100487.0;;;14.69;88.18
62458;BME280;48509;52.122;5.250;2023-03-30T09:04:03;100485.0;;;14.86;86.87
62458;BME280;48509;52.122;5.250;2023-03-30T09:07:32;100473.0;;;14.85;85.86
62458;BME280;48509;52.122;5.250;2023-03-30T09:09:17;100499.0;;;14.9;85.82
62458;BME280;48509;52.122;5.250;2023-03-30T09:10:58;100489.0;;;14.71;85.01
62458;BME280;48509;52.122;5.250;2023-03-30T09:12:37;100489.0;;;14.85;85.54
62458;BME280;48509;52.122;5.250;2023-03-30T09:16:13;100493.0;;;14.91;84.94
62458;BME280;48509;52.122;5.250;2023-03-30T09:17:56;100483.0;;;14.94;85.16
62458;BME280;48509;52.122;5.250;2023-03-30T09:19:46;100492.0;;;14.72;84.2
62458;BME280;48509;52.122;5.250;2023-03-30T09:21:28;100503.0;;;14.79;83.77
62458;BME280;48509;52.122;5.250;2023-03-30T09:23:11;100505.0;;;14.84;82.61
62458;BME280;48509;52.122;5.250;2023-03-30T09:24:50;100509.0;;;14.96;83.53
62458;BME280;48509;52.122;5.250;2023-03-30T09:28:23;100511.0;;;14.8;83.89
62458;BME280;48509;52.122;5.250;2023-03-30T09:30:16;100508.0;;;15.05;84.64
62458;BME280;48509;52.122;5.250;2023-03-30T09:31:59;100515.0;;;15.17;82.26
62458;BME280;48509;52.122;5.250;2023-03-30T09:33:43;100511.0;;;15.14;83.62
62458;BME280;48509;52.122;5.250;2023-03-30T09:35:24;100513.0;;;15.21;82.35
62458;BME280;48509;52.122;5.250;2023-03-30T09:38:46;100523.0;;;15.24;84.07
62458;BME280;48509;52.122;5.250;2023-03-30T09:40:35;100528.0;;;15.17;81.66
62458;BME280;48509;52.122;5.250;2023-03-30T09:42:22;100530.0;;;15.28;81.95
62458;BME280;48509;52.122;5.250;2023-03-30T09:44:03;100528.0;;;15.42;80.78
62458;BME280;48509;52.122;5.250;2023-03-30T09:45:49;100537.0;;;15.57;80.14
62458;BME280;48509;52.122;5.250;2023-03-30T09:49:12;100527.0;;;15.68;79.2
62458;BME280;48509;52.122;5.250;2023-03-30T09:50:50;100541.0;;;15.65;79.39
62458;BME280;48509;52.122;5.250;2023-03-30T09:52:30;100527.0;;;15.44;78.88
62458;BME280;48509;52.122;5.250;2023-03-30T09:54:13;100538.0;;;15.56;78.66
62458;BME280;48509;52.122;5.250;2023-03-30T09:57:34;100540.0;;;15.56;77.52
62458;BME280;48509;52.122;5.250;2023-03-30T09:59:21;100544.0;;;15.57;77.87
62458;BME280;48509;52.122;5.250;2023-03-30T10:01:07;100538.0;;;15.67;77.59
62458;BME280;48509;52.122;5.250;2023-03-30T10:02:53;100534.0;;;15.6;76.59
62458;BME280;48509;52.122;5.250;2023-03-30T10:06:12;100542.0;;;15.51;75.77
62458;BME280;48509;52.122;5.250;2023-03-30T10:07:54;100544.0;;;15.72;76.58
62458;BME280;48509;52.122;5.250;2023-03-30T10:09:42;100536.0;;;15.9;75.58
62458;BME280;48509;52.122;5.250;2023-03-30T10:11:30;100542.0;;;15.94;74.41
62458;BME280;48509;52.122;5.250;2023-03-30T10:13:15;100541.0;;;15.8;74.45
62458;BME280;48509;52.122;5.250;2023-03-30T10:16:33;100551.0;;;15.82;74.97
62458;BME280;48509;52.122;5.250;2023-03-30T10:18:35;100553.0;;;15.88;75.12
62458;BME280;48509;52.122;5.250;2023-03-30T10:20:25;100555.0;;;15.82;74.86
62458;BME280;48509;52.122;5.250;2023-03-30T10:22:13;100555.0;;;15.91;74.74
62458;BME280;48509;52.122;5.250;2023-03-30T10:24:19;100560.0;;;15.98;75.69
62458;BME280;48509;52.122;5.250;2023-03-30T10:26:00;100564.0;;;16.11;74.58
62458;BME280;48509;52.122;5.250;2023-03-30T10:27:40;100565.0;;;15.87;74.05
62458;BME280;48509;52.122;5.250;2023-03-30T10:32:43;100553.0;;;15.99;74.81
62458;BME280;48509;52.122;5.250;2023-03-30T10:34:29;100564.0;;;16.07;74.55
62458;BME280;48509;52.122;5.250;2023-03-30T10:36:13;100555.0;;;16.29;75.48
62458;BME280;48509;52.122;5.250;2023-03-30T10:39:33;100570.0;;;16.68;73.88
62458;BME280;48509;52.122;5.250;2023-03-30T10:41:13;100557.0;;;16.95;73.2
62458;BME280;48509;52.122;5.250;2023-03-30T10:42:54;100541.0;;;17.09;70.39
62458;BME280;48509;52.122;5.250;2023-03-30T10:44:34;100553.0;;;16.93;70.69
62458;BME280;48509;52.122;5.250;2023-03-30T10:48:04;100539.0;;;17.05;69.03
62458;BME280;48509;52.122;5.250;2023-03-30T10:49:54;100546.0;;;16.87;68.67
62458;BME280;48509;52.122;5.250;2023-03-30T10:53:38;100556.0;;;16.61;69.45
62458;BME280;48509;52.122;5.250;2023-03-30T10:55:25;100562.0;;;16.73;69.7
62458;BME280;48509;52.122;5.250;2023-03-30T10:57:09;100559.0;;;16.55;70.87
62458;BME280;48509;52.122;5.250;2023-03-30T11:00:54;100563.0;;;16.47;71.86
62458;BME280;48509;52.122;5.250;2023-03-30T11:02:53;100559.0;;;16.5;72.13
62458;BME280;48509;52.122;5.250;2023-03-30T11:04:41;100558.0;;;16.52;71.37
62458;BME280;48509;52.122;5.250;2023-03-30T11:06:22;100573.0;;;16.22;70.27
62458;BME280;48509;52.122;5.250;2023-03-30T11:08:05;100572.0;;;15.95;71.64
62458;BME280;48509;52.122;5.250;2023-03-30T11:09:49;100565.0;;;15.87;72.03
62458;BME280;48509;52.122;5.250;2023-03-30T11:13:14;100575.0;;;15.89;73.08
62458;BME280;48509;52.122;5.250;2023-03-30T11:14:57;100565.0;;;15.94;72.64
62458;BME280;48509;52.122;5.250;2023-03-30T11:18:27;100571.0;;;15.9;72.16